Aérodrome :
LOGIN :

S'inscrire | Disclaimer

   EN    FR    IT 

 










Légende :    VFR   VFR Marginal   IFR   IFR Intensif   IFR Très Intensif
Visi : 
Plafond : 
>= 8 km
>= 3000ft
5 à 8 km
1000 à 3000 ft
1500m à 5 km
500 à 1000 ft
800 à 1500m
200 à 500 ft
< 800m
< 200 ft
Symboles :   Orages  Brouillard  Fortes neiges  Fortes précipitations  Vent > 20 kt
SIGMETs :   Divers  Orages  Givrage  Turbulence  Onde Orograph.  Cendres Volcan.






- Altitude de l'aérodrome : 37 ft


EHVL - Vlieland Heliport

DERNIER METAR :
  • 181155Z AUTO 32010KT 9999 OVC240 17/12 Q1021 BLU

METARs EXPIRÉS :
  • 181125Z AUTO 31010KT 9999 BKN230 OVC320 16/12 Q1021 BLU
  • 181055Z AUTO 31010KT 9999 FEW340 17/13 Q1021 BLU
  • 181025Z AUTO 32008KT 9999 BKN390 17/12 Q1021 BLU
  • 180955Z AUTO 30009KT 9999 SCT390 17/13 Q1021 BLU
  • 180925Z AUTO 31009KT 9999 BKN370 17/13 Q1020 BLU

Prévision TAF périmée.



MET'MAP, la Météo Aéronautique d'un coup d'oeil ! - Copyright ORBIFLY Décembre 2007 - Disclaimer

ORBIFLY MET'MAP TEAM :

Programmation & Développement : Alexandra Zaïnal
Sur une idée originale de : Baudouin d'Aumeries
Soutien technique & logistique : Manuel Goepfert
Assistance : Marc-Olivier Méhu

Contact : metmap@orbifly.com




SOURCES & CREDITS :

   NOAA